La Verne, California
Current Conditions -  °F | °C
As of 11:53 AM on Monday 26 Jan 2015 (Local Time) from KONT Reporting Station
Broken Clouds Broken Clouds  
Wind Chill: 76°   Ceiling: 24000
Heat Index: 76°   Visibility: 10mi
Dew Point: 34°   Wind: 8mph
Humidity: 22%   Direction: 160°SSE
Pressure: 30.02"   Gusts: NA
Location:  34.11°N, 117.76°W
Report Text: KONT 261953Z 16007KT 10SM FEW110 SCT170 BKN240 24/01 A3002 RMK AO2 SLP153 VIRGA DSNT SE FU SW T02440011
Loading
Personal Weather Stations






























Interactive Weather Map New forecast layout! Learn more

10-Day Weather Forecast

Advertisements
Track Severe Weather on mobile